• Join FlightAware (Why Join?)
  • Login
  • US Flag 
12:45AM EDT


 

Airport Tracker/Info


-or-


 

Live Flight TrackerFlight Track Log ✈ SKW5576 ✈ 19-Jul-2013 ✈ KIAH - KTUS

Flight Track Log - Related Links

Times and Time Zones

All times are in EDT time to prevent confusion due to time zone crossing. See the SKW5576 flight status page for this flight to view local times or setup timezone preferences in your user account.

Time Position Orientation Groundspeed Altitude Reporting Facility
EDT Latitude Longitude Course Direction KTS MPH feet Rate Location/Type
07:37PM 29.9594 -95.3414 277° West 152 175 700  Level Houston Center
07:38PM 29.9056 -95.4178 231° Southwest 249 287 3,500 1,920 Climbing Houston Center
07:39PM 30.0239 -95.7382 280° West  Level FlightAware Approximate
07:39PM 29.8883 -95.4431 232° Southwest 237 273 4,700  Level Houston Center
07:40PM 30.0395 -95.8735 276° West  Level FlightAware Approximate
07:40PM 29.8442 -95.5061 231° Southwest 252 290 7,400  Level Houston Center
07:41PM 30.0529 -96.0088 291° West  Level FlightAware Approximate
07:41PM 29.7975 -95.5892 237° Southwest 276 318 9,800  Level Houston Center
07:42PM 30.0759 -96.1418 277° West  Level FlightAware Approximate
07:42PM 29.8050 -95.6819 275° West 292 336 12,100  Level Houston Center
07:43PM 29.8125 -95.7853 275° West 322 371 13,400 1,440 Climbing Houston Center
07:44PM 29.8325 -95.8975 282° West 360 414 15,100 1,740 Climbing Houston Center
07:45PM 29.8614 -96.0278 284° West 370 426 17,000 1,680 Climbing Houston Center
07:46PM 29.8869 -96.1450 284° West 378 435 18,600 1,560 Climbing Houston Center
07:47PM 29.9122 -96.2664 284° West 389 448 20,300 1,560 Climbing Houston Center
07:48PM 29.9375 -96.3897 283° West 396 456 21,900 1,740 Climbing Houston Center
07:49PM 29.9625 -96.5097 284° West 389 448 23,900 1,560 Climbing Houston Center
07:50PM 29.9922 -96.6536 283° West 388 447 25,200 1,140 Climbing Houston Center
07:51PM 30.0169 -96.7778 283° West 397 457 26,300 1,020 Climbing Houston Center
07:52PM 30.0428 -96.9031 283° West 403 464 27,400 840 Climbing Houston Center
07:53PM 30.0686 -97.0294 283° West 407 468 28,100 660 Climbing Houston Center
07:54PM 30.0964 -97.1697 283° West 423 487 28,800 600 Climbing Houston Center
07:55PM 30.1242 -97.3119 283° West 440 506 29,400 600 Climbing Houston Center
07:56PM 30.1528 -97.4558 283° West 451 519 30,100 840 Climbing Houston Center
07:57PM 30.1814 -97.5975 283° West 449 517 31,200 960 Climbing Houston Center
07:58PM 30.2092 -97.7403 283° West 449 517 32,100 1,140 Climbing Houston Center
07:59PM 30.2408 -97.8969 283° West 439 505 33,600 900 Climbing Houston Center
08:00PM 30.2683 -98.0450 282° West 439 505 34,000 660 Climbing Houston Center
08:01PM 30.2961 -98.1872 283° West 451 519 35,000 960 Climbing Houston Center
08:02PM 30.3225 -98.3261 282° West 443 510 36,000 480 Climbing Houston Center
08:03PM 30.3481 -98.4650 282° West 437 503 36,000 240 Level Houston Center
08:04PM 30.3750 -98.6039 283° West 439 505 36,600 960 Climbing Houston Center
08:06PM 30.4003 -98.7383 282° West 424 488 38,000 660 Climbing Houston Center
08:07PM 30.4261 -98.8714 283° West 419 482 38,000  Level Houston Center
08:08PM 30.4511 -99.0081 282° West 428 493 38,000  Level Houston Center
08:09PM 30.4792 -99.1547 283° West 436 502 38,000  Level Houston Center
08:10PM 30.5042 -99.2939 282° West 441 507 38,000  Level Houston Center
08:11PM 30.5303 -99.4331 282° West 443 510 38,000  Level Houston Center
08:12PM 30.5661 -99.6006 284° West 447 514 38,000  Level Houston Center
08:13PM 30.5958 -99.7394 284° West 446 513 38,000  Level Houston Center
08:14PM 30.6244 -99.8761 284° West 445 512 38,000  Level Houston Center
08:15PM 30.6536 -100.0147 284° West 438 504 38,000  Level Houston Center
08:16PM 30.6844 -100.1533 285° West 443 510 38,000  Level Houston Center
08:17PM 30.7147 -100.2936 284° West 448 516 38,000  Level Houston Center
08:18PM 30.7483 -100.4614 283° West 453 521 38,000  Level Houston Center
08:19PM 30.7761 -100.5972 283° West 444 511 38,000  Level Houston Center
08:20PM 30.8061 -100.7361 284° West 451 519 38,000  Level Houston Center
08:21PM 30.8336 -100.8778 283° West 448 516 38,000  Level Houston Center
08:22PM 30.8614 -101.0156 283° West 441 507 38,000  Level Houston Center
08:23PM 30.8892 -101.1525 283° West 439 505 38,000  Level Houston Center
08:24PM 30.9172 -101.2897 283° West 437 503 38,000  Level Houston Center
08:25PM 30.9481 -101.4461 283° West 417 480 38,000  Level Houston Center
08:27PM 31.0019 -101.7194 283° West 429 494 38,000  Level Houston Center
08:28PM 31.0292 -101.8539 283° West 428 493 38,000  Level Houston Center
08:29PM 31.0556 -101.9903 283° West 445 512 38,000  Level Houston Center
08:30PM 31.0819 -102.1281 283° West 441 507 38,000  Level Houston Center
08:31PM 31.1075 -102.2681 282° West 426 490 38,000  Level Houston Center
08:32PM 31.1336 -102.4111 282° West 445 512 38,000  Level Houston Center
08:33PM 31.1619 -102.5528 283° West 443 510 38,000  Level Houston Center
08:34PM 31.1947 -102.7192 283° West 437 503 38,000  Level Houston Center
08:35PM 31.2211 -102.8575 283° West 436 502 38,000  Level Houston Center
08:36PM 31.2467 -102.9961 282° West 437 503 38,000  Level Albuquerque Center
08:37PM 31.2728 -103.1353 282° West 438 504 38,000  Level Albuquerque Center
08:38PM 31.2981 -103.2733 282° West 438 504 38,000  Level Albuquerque Center
08:40PM 31.3281 -103.4403 282° West 438 504 38,000  Level Albuquerque Center
08:41PM 31.3539 -103.5797 282° West 439 505 38,000  Level Albuquerque Center
08:42PM 31.3803 -103.7197 282° West 440 506 38,000  Level Albuquerque Center
08:43PM 31.4014 -103.8406 282° West 440 506 38,000  Level Albuquerque Center
08:44PM 31.4322 -104.0083 282° West 441 507 38,000  Level Albuquerque Center
08:45PM 31.4572 -104.1483 282° West 441 507 38,000  Level Albuquerque Center
08:46PM 31.4822 -104.2883 282° West 442 509 38,000  Level Albuquerque Center
08:47PM 31.5069 -104.4297 282° West 444 511 38,000  Level Albuquerque Center
08:48PM 31.5319 -104.5717 282° West 446 513 38,000  Level Albuquerque Center
08:49PM 31.5564 -104.7125 282° West 446 513 38,000  Level Albuquerque Center
08:50PM 31.5856 -104.8847 281° West 450 518 38,000  Level Albuquerque Center
08:51PM 31.6114 -105.0278 282° West 451 519 38,000  Level Albuquerque Center
08:52PM 31.6353 -105.1711 281° West 451 519 38,000  Level Albuquerque Center
08:53PM 31.6594 -105.3139 281° West 450 518 38,000  Level Albuquerque Center
08:54PM 31.6828 -105.4606 281° West 457 526 38,000  Level Albuquerque Center
08:55PM 31.7072 -105.6056 281° West 455 524 38,000  Level Albuquerque Center
08:56PM 31.7314 -105.7511 281° West 455 524 38,000  Level Albuquerque Center
08:57PM 31.7589 -105.9250 281° West 454 522 38,000  Level Albuquerque Center
08:58PM 31.7828 -106.0703 281° West 455 524 38,000  Level Albuquerque Center
08:59PM 31.8075 -106.2153 281° West 454 522 38,000  Level Albuquerque Center
09:00PM 31.8289 -106.3656 280° West 467 537 38,000  Level Albuquerque Center
09:01PM 31.8453 -106.5136 277° West 461 531 38,000  Level Albuquerque Center
09:02PM 31.8642 -106.6753 278° West 459 528 38,000  Level Albuquerque Center
09:03PM 31.8811 -106.8244 278° West 459 528 38,000  Level Albuquerque Center
09:04PM 31.8983 -106.9753 278° West 463 533 38,000  Level Albuquerque Center
09:05PM 31.9150 -107.1275 277° West 466 536 38,000  Level Albuquerque Center
09:06PM 31.9311 -107.2789 277° West 465 535 38,000  Level Albuquerque Center
09:07PM 31.9483 -107.4319 278° West 467 537 38,000  Level Albuquerque Center
09:08PM 31.9647 -107.5853 277° West 468 539 38,000  Level Albuquerque Center
09:09PM 31.9819 -107.7381 278° West 469 540 38,000 -60 Level Albuquerque Center
09:10PM 31.9967 -107.8906 277° West 468 539 37,900  Descending Albuquerque Center
09:11PM 32.0175 -108.0717 278° West 465 535 38,000  Climbing Albuquerque Center
09:12PM 32.0317 -108.2208 276° West 459 528 38,000  Level Albuquerque Center
09:13PM 32.0469 -108.3706 277° West 458 527 38,000  Level Albuquerque Center
09:14PM 32.0553 -108.5217 274° West 459 528 38,000  Level Albuquerque Center
09:15PM 32.0597 -108.6769 272° West 464 534 38,000  Level Albuquerque Center
09:16PM 32.0647 -108.8317 272° West 471 542 38,000 -660 Level Albuquerque Center
09:17PM 32.0694 -108.9881 272° West 475 547 36,700 -2,220 Descending Albuquerque Center
09:18PM 32.0753 -109.1503 272° West 487 560 33,600 -3,000 Descending Albuquerque Center
09:19PM 32.0792 -109.3122 272° West 492 566 30,600 -2,940 Descending Albuquerque Center
09:20PM 32.0833 -109.4708 272° West 487 560 27,600 -3,000 Descending Albuquerque Center
09:21PM 32.0878 -109.6286 272° West 482 555 24,600 -3,000 Descending Albuquerque Center
09:23PM 32.0933 -109.8122 272° West 470 541 21,500 -2,760 Descending Albuquerque Center
09:24PM 32.0969 -109.9572 272° West 450 518 19,000 -2,460 Descending Albuquerque Center
09:25PM 32.0983 -110.0981 271° West 436 502 16,500 -2,160 Descending Albuquerque Center
09:26PM 32.1247 -110.2292 283° West 414 476 14,600 -1,440 Descending Albuquerque Center
09:27PM 32.1575 -110.3572 287° West 406 467 13,600 -960 Descending Albuquerque Center
09:28PM 32.1861 -110.4647 287° West 358 412 12,700 -960 Descending Albuquerque Center
09:29PM 32.2136 -110.5631 288° West 325 374 11,700 -840 Descending Albuquerque Center
09:30PM 32.2369 -110.6528 287° West 298 343 11,000 -1,080 Descending Albuquerque Center
09:31PM 32.2614 -110.7328 290° West 269 310 9,500 -1,680 Descending Albuquerque Center
09:32PM 32.2756 -110.8258 280° West 278 320 7,700 -1,260 Descending Albuquerque Center
09:33PM 32.2736 -110.9175 269° West 287 330 7,000 -840 Descending Albuquerque Center
09:34PM 32.2272 -110.9953 235° Southwest 262 302 6,100 -900 Descending Albuquerque Center